Time;durP1;ratioP1;P1;durP2;ratioP2;P2;SDS_P1;SDS_P2;PMS_P1;PMS_P2;Temp;Humidity;BMP_temperature;BMP_pressure;BME280_temperature;BME280_humidity;BME280_pressure;Samples;Min_cycle;Max_cycle;Signal;HPM_P1;HPM_P2
2021/05/14 00:00:21;;;;;;;;;;;13.50;99.90;;;;;;5091042;28;19931;-86
2021/05/14 00:02:46;;;;;;;;;;;13.60;99.90;;;;;;5091357;28;19908;-86
2021/05/14 00:05:12;;;;;;;;;;;13.50;99.90;;;;;;5074295;28;20422;-86
2021/05/14 00:07:38;;;;;;;;;;;13.50;99.90;;;;;;5091157;28;20376;-86
2021/05/14 00:10:04;;;;;;;;;;;13.50;99.90;;;;;;5091464;28;19912;-87
2021/05/14 00:12:29;;;;;;;;;;;13.50;99.90;;;;;;5095393;28;19908;-86
2021/05/14 00:14:58;;;;;;;;;;;13.50;99.90;;;;;;5095295;28;19916;-86
2021/05/14 00:17:24;;;;;;;;;;;13.40;99.90;;;;;;5095238;28;19912;-86
2021/05/14 00:19:49;;;;;;;;;;;13.40;99.90;;;;;;5095077;28;19908;-86
2021/05/14 00:22:15;;;;;;;;;;;13.40;99.90;;;;;;5095220;28;19980;-86
2021/05/14 00:24:41;;;;;;;;;;;13.40;99.90;;;;;;5095022;28;19959;-86
2021/05/14 00:27:09;;;;;;;;;;;13.40;99.90;;;;;;5094970;28;20425;-86
2021/05/14 00:29:38;;;;;;;;;;;13.50;99.90;;;;;;5094423;28;19981;-86
2021/05/14 00:32:04;;;;;;;;;;;13.50;99.90;;;;;;5094427;28;20406;-86
2021/05/14 00:34:29;;;;;;;;;;;13.50;99.90;;;;;;5094902;28;19943;-86
2021/05/14 00:36:55;;;;;;;;;;;13.50;99.90;;;;;;5096023;28;19920;-86
2021/05/14 00:39:20;;;;;;;;;;;13.50;99.80;;;;;;5094134;28;20279;-86
2021/05/14 00:41:46;;;;;;;;;;;13.40;99.90;;;;;;5094776;28;20360;-86
2021/05/14 00:44:24;;;;;;;;;;;13.40;99.90;;;;;;5095950;28;19910;-86
2021/05/14 00:46:49;;;;;;;;;;;13.40;99.90;;;;;;5096011;28;19915;-87
2021/05/14 00:49:15;;;;;;;;;;;13.30;99.90;;;;;;5077350;28;20276;-86
2021/05/14 00:51:40;;;;;;;;;;;13.40;99.90;;;;;;5077470;28;19912;-86
2021/05/14 00:54:07;;;;;;;;;;;13.40;99.90;;;;;;5095876;28;19908;-86
2021/05/14 00:56:33;;;;;;;;;;;13.40;99.90;;;;;;5094401;28;19912;-86
2021/05/14 00:58:58;;;;;;;;;;;13.40;99.90;;;;;;5094024;28;19961;-86
2021/05/14 01:01:24;;;;;;;;;;;13.40;99.90;;;;;;5095626;28;20361;-86
2021/05/14 01:03:49;;;;;;;;;;;13.30;99.90;;;;;;5094467;28;19916;-86
2021/05/14 01:06:15;;;;;;;;;;;13.20;99.90;;;;;;5094330;28;19915;-86
2021/05/14 01:08:40;;;;;;;;;;;13.20;99.90;;;;;;5094300;28;20003;-86
2021/05/14 01:11:06;;;;;;;;;;;13.10;99.90;;;;;;5093868;28;19912;-86
2021/05/14 01:13:32;;;;;;;;;;;13.10;99.90;;;;;;5096340;28;19908;-86
2021/05/14 01:15:58;;;;;;;;;;;13.10;99.90;;;;;;5095622;28;19912;-86
2021/05/14 01:18:24;;;;;;;;;;;13.00;99.90;;;;;;5096269;28;19912;-86
2021/05/14 01:20:49;;;;;;;;;;;13.10;99.90;;;;;;5093412;28;19914;-86
2021/05/14 01:23:15;;;;;;;;;;;13.10;99.90;;;;;;5094012;28;19912;-86
2021/05/14 01:25:41;;;;;;;;;;;13.10;99.90;;;;;;5095389;28;19909;-86
2021/05/14 01:28:06;;;;;;;;;;;13.20;99.80;;;;;;5093802;28;19917;-86
2021/05/14 01:30:32;;;;;;;;;;;13.10;99.50;;;;;;5094615;28;19913;-87
2021/05/14 01:33:00;;;;;;;;;;;13.10;99.30;;;;;;5093639;28;19966;-86
2021/05/14 01:35:25;;;;;;;;;;;13.10;99.60;;;;;;5093793;28;19908;-86
2021/05/14 01:37:51;;;;;;;;;;;13.00;99.70;;;;;;5094705;28;20002;-86
2021/05/14 01:40:16;;;;;;;;;;;13.00;99.90;;;;;;5094243;28;19912;-86
2021/05/14 01:42:47;;;;;;;;;;;12.90;99.90;;;;;;5093359;28;19908;-86
2021/05/14 01:45:13;;;;;;;;;;;12.90;99.90;;;;;;5076972;28;19912;-86
2021/05/14 01:47:42;;;;;;;;;;;12.80;99.90;;;;;;5094803;28;19995;-86
2021/05/14 01:50:08;;;;;;;;;;;12.70;99.90;;;;;;5092831;28;19908;-86
2021/05/14 01:52:34;;;;;;;;;;;12.60;99.90;;;;;;5093726;28;20053;-86
2021/05/14 01:55:03;;;;;;;;;;;12.60;99.90;;;;;;5093373;28;19915;-86
2021/05/14 01:57:28;;;;;;;;;;;12.60;99.90;;;;;;5093119;28;19912;-86
2021/05/14 01:59:57;;;;;;;;;;;12.50;99.90;;;;;;5092855;28;19909;-86
2021/05/14 02:02:25;;;;;;;;;;;12.50;99.90;;;;;;5093214;28;19947;-86
2021/05/14 02:04:51;;;;;;;;;;;12.40;99.90;;;;;;5093454;28;19912;-86
2021/05/14 02:07:16;;;;;;;;;;;12.40;99.90;;;;;;5094581;28;19954;-86
2021/05/14 02:09:42;;;;;;;;;;;12.40;99.90;;;;;;5092807;28;19908;-86
2021/05/14 02:12:10;;;;;;;;;;;12.30;99.90;;;;;;5094300;28;19908;-86
2021/05/14 02:14:36;;;;;;;;;;;12.30;99.90;;;;;;5093004;28;19969;-86
2021/05/14 02:17:01;;;;;;;;;;;12.30;99.90;;;;;;5093072;28;20334;-86
2021/05/14 02:19:36;;;;;;;;;;;12.30;99.90;;;;;;5092474;28;19908;-86
2021/05/14 02:22:05;;;;;;;;;;;12.30;99.90;;;;;;5093129;28;19930;-86
2021/05/14 02:24:31;;;;;;;;;;;12.40;99.90;;;;;;5093990;28;20403;-86
2021/05/14 02:26:57;;;;;;;;;;;12.30;99.90;;;;;;5092734;28;19914;-86
2021/05/14 02:29:22;;;;;;;;;;;12.30;99.90;;;;;;5091953;28;20003;-86
2021/05/14 02:31:48;;;;;;;;;;;12.30;99.90;;;;;;5093805;28;20288;-86
2021/05/14 02:34:13;;;;;;;;;;;12.20;99.90;;;;;;5093442;28;19928;-86
2021/05/14 02:36:39;;;;;;;;;;;12.20;99.90;;;;;;5092000;28;20372;-86
2021/05/14 02:39:05;;;;;;;;;;;12.20;99.90;;;;;;5090745;28;20457;-86
2021/05/14 02:41:31;;;;;;;;;;;12.10;99.90;;;;;;5093323;28;19934;-86
2021/05/14 02:43:57;;;;;;;;;;;12.20;99.90;;;;;;5092318;28;20352;-86
2021/05/14 02:46:22;;;;;;;;;;;12.10;99.90;;;;;;5092183;28;19963;-86
2021/05/14 02:48:48;;;;;;;;;;;12.20;99.90;;;;;;5091986;28;19912;-86
2021/05/14 02:51:13;;;;;;;;;;;12.10;99.90;;;;;;5092286;28;19935;-86
2021/05/14 02:53:39;;;;;;;;;;;12.00;99.90;;;;;;5093493;28;19912;-86
2021/05/14 02:56:04;;;;;;;;;;;12.00;99.90;;;;;;5092099;28;19912;-86
2021/05/14 02:58:30;;;;;;;;;;;12.10;99.90;;;;;;5091956;28;19990;-86
2021/05/14 03:00:56;;;;;;;;;;;12.00;99.90;;;;;;5091478;28;19912;-86
2021/05/14 03:03:21;;;;;;;;;;;11.90;99.90;;;;;;5092088;28;19912;-86
2021/05/14 03:05:47;;;;;;;;;;;11.90;99.90;;;;;;5092032;28;20414;-89
2021/05/14 03:08:12;;;;;;;;;;;11.90;99.90;;;;;;5093232;28;19915;-86
2021/05/14 03:10:38;;;;;;;;;;;11.90;99.90;;;;;;5091369;28;20361;-86
2021/05/14 03:13:03;;;;;;;;;;;11.90;99.90;;;;;;5091743;28;19938;-86
2021/05/14 03:15:29;;;;;;;;;;;11.80;99.90;;;;;;5091724;28;19999;-86
2021/05/14 03:17:54;;;;;;;;;;;11.80;99.90;;;;;;5092932;28;19923;-86
2021/05/14 03:20:20;;;;;;;;;;;11.80;99.90;;;;;;5092519;28;19935;-86
2021/05/14 03:22:45;;;;;;;;;;;11.70;99.90;;;;;;5091659;28;20358;-86
2021/05/14 03:25:11;;;;;;;;;;;11.70;99.90;;;;;;5091773;28;19916;-86
2021/05/14 03:27:37;;;;;;;;;;;11.70;99.90;;;;;;5091583;28;20311;-86
2021/05/14 03:30:04;;;;;;;;;;;11.70;99.90;;;;;;5090991;28;20113;-86
2021/05/14 03:32:30;;;;;;;;;;;11.70;99.90;;;;;;5091512;28;20425;-86
2021/05/14 03:34:55;;;;;;;;;;;11.70;99.90;;;;;;5092787;28;19948;-85
2021/05/14 03:37:21;;;;;;;;;;;11.60;99.90;;;;;;5091477;28;19981;-86
2021/05/14 03:39:50;;;;;;;;;;;11.60;99.90;;;;;;5090779;28;20012;-86
2021/05/14 03:42:20;;;;;;;;;;;11.60;99.90;;;;;;5092635;28;20308;-85
2021/05/14 03:44:45;;;;;;;;;;;11.60;99.90;;;;;;5091809;28;20366;-85
2021/05/14 03:47:11;;;;;;;;;;;11.60;99.90;;;;;;5091367;28;19919;-85
2021/05/14 03:49:37;;;;;;;;;;;11.60;99.90;;;;;;5090673;28;19962;-85
2021/05/14 03:52:04;;;;;;;;;;;11.60;99.90;;;;;;5092538;28;20430;-85
2021/05/14 03:54:29;;;;;;;;;;;11.60;99.90;;;;;;5091259;28;19943;-86
2021/05/14 03:56:55;;;;;;;;;;;11.60;99.90;;;;;;5091019;28;20367;-85
2021/05/14 03:59:20;;;;;;;;;;;11.60;99.90;;;;;;5090428;28;20289;-86
2021/05/14 04:01:46;;;;;;;;;;;11.50;99.90;;;;;;5091178;28;19995;-86
2021/05/14 04:04:11;;;;;;;;;;;11.60;99.90;;;;;;5091208;28;20254;-87
2021/05/14 04:06:37;;;;;;;;;;;11.60;99.90;;;;;;5091169;28;19908;-86
2021/05/14 04:09:04;;;;;;;;;;;11.60;99.90;;;;;;5090410;28;20429;-86
2021/05/14 04:16:48;;;;;;;;;;;11.60;99.90;;;;;;5092480;28;19919;-86
2021/05/14 04:19:13;;;;;;;;;;;11.60;99.90;;;;;;5091737;28;19908;-86
2021/05/14 04:21:40;;;;;;;;;;;11.70;99.90;;;;;;5092175;28;19951;-86
2021/05/14 04:24:05;;;;;;;;;;;11.70;99.90;;;;;;5092698;28;20060;-87
2021/05/14 04:26:31;;;;;;;;;;;11.70;99.90;;;;;;5090881;28;20382;-86
2021/05/14 04:28:57;;;;;;;;;;;11.70;99.90;;;;;;5090564;28;20006;-86
2021/05/14 04:31:22;;;;;;;;;;;11.80;99.90;;;;;;5090829;28;19912;-86
2021/05/14 04:33:48;;;;;;;;;;;11.80;99.90;;;;;;5092870;28;19908;-87
2021/05/14 04:36:14;;;;;;;;;;;11.70;99.90;;;;;;5092951;28;19916;-86
2021/05/14 04:38:39;;;;;;;;;;;11.70;99.90;;;;;;5091815;28;20377;-86
2021/05/14 04:41:05;;;;;;;;;;;11.70;99.90;;;;;;5090101;28;19912;-86
2021/05/14 04:43:30;;;;;;;;;;;11.70;99.90;;;;;;5090769;28;20345;-86
2021/05/14 04:45:56;;;;;;;;;;;11.70;99.90;;;;;;5090838;28;19908;-86
2021/05/14 04:48:22;;;;;;;;;;;11.70;99.90;;;;;;5090713;28;19908;-86
2021/05/14 04:50:47;;;;;;;;;;;11.70;99.90;;;;;;5091523;28;19931;-87
2021/05/14 04:53:15;;;;;;;;;;;11.80;99.90;;;;;;5091962;28;19918;-86
2021/05/14 04:55:40;;;;;;;;;;;11.80;99.90;;;;;;5092001;28;19920;-87
2021/05/14 04:58:06;;;;;;;;;;;11.90;99.90;;;;;;5095579;28;20276;-86
2021/05/14 05:00:32;;;;;;;;;;;11.90;99.90;;;;;;5095027;28;20261;-87
2021/05/14 05:02:58;;;;;;;;;;;11.90;99.90;;;;;;5094266;28;19908;-87
2021/05/14 05:05:24;;;;;;;;;;;11.90;99.90;;;;;;5094202;28;20054;-86
2021/05/14 05:07:49;;;;;;;;;;;11.90;99.90;;;;;;5094312;28;19909;-86
2021/05/14 05:10:16;;;;;;;;;;;11.90;99.90;;;;;;5095203;28;19912;-86
2021/05/14 05:12:42;;;;;;;;;;;12.00;99.90;;;;;;5097638;28;19908;-87
2021/05/14 05:15:08;;;;;;;;;;;12.00;99.90;;;;;;5097828;28;20327;-87
2021/05/14 05:17:33;;;;;;;;;;;12.00;99.90;;;;;;5096803;28;19942;-87
2021/05/14 05:19:59;;;;;;;;;;;12.00;99.90;;;;;;5095394;28;20361;-87
2021/05/14 05:22:25;;;;;;;;;;;12.10;99.90;;;;;;5095095;28;19908;-87
2021/05/14 05:24:50;;;;;;;;;;;12.00;99.90;;;;;;5093859;28;19913;-86
2021/05/14 05:27:16;;;;;;;;;;;12.10;99.90;;;;;;5096194;28;19995;-87
2021/05/14 05:29:41;;;;;;;;;;;12.00;99.90;;;;;;5094231;28;19908;-87
2021/05/14 05:32:07;;;;;;;;;;;12.10;99.90;;;;;;5095698;28;19912;-87
2021/05/14 05:34:32;;;;;;;;;;;12.10;99.90;;;;;;5095200;28;19908;-86
2021/05/14 05:36:58;;;;;;;;;;;12.20;99.90;;;;;;5095113;28;19916;-86
2021/05/14 05:39:23;;;;;;;;;;;12.20;99.90;;;;;;5093979;28;19916;-87
2021/05/14 05:41:49;;;;;;;;;;;12.20;99.90;;;;;;5093694;28;19909;-87
2021/05/14 05:44:15;;;;;;;;;;;12.30;99.90;;;;;;5093827;28;19914;-87
2021/05/14 05:46:40;;;;;;;;;;;12.30;99.90;;;;;;5094924;28;19916;-87
2021/05/14 05:49:06;;;;;;;;;;;12.30;99.90;;;;;;5093538;28;20074;-88
2021/05/14 05:51:31;;;;;;;;;;;12.40;99.90;;;;;;5093639;28;19908;-87
2021/05/14 05:53:57;;;;;;;;;;;12.40;99.90;;;;;;5094957;28;19915;-87
2021/05/14 05:56:26;;;;;;;;;;;12.40;99.90;;;;;;5093517;28;19955;-87
2021/05/14 05:58:52;;;;;;;;;;;12.40;99.90;;;;;;5094884;28;19934;-87
2021/05/14 06:01:18;;;;;;;;;;;12.40;99.90;;;;;;5093306;28;19908;-87
2021/05/14 06:03:44;;;;;;;;;;;12.50;99.90;;;;;;5093665;28;20006;-87
2021/05/14 06:06:09;;;;;;;;;;;12.50;99.90;;;;;;5093399;28;20387;-87
2021/05/14 06:12:14;;;;;;;;;;;12.60;99.90;;;;;;5050516;28;19962;-87
2021/05/14 06:15:22;;;;;;;;;;;12.70;99.90;;;;;;5094441;28;20335;-87
2021/05/14 06:18:15;;;;;;;;;;;12.70;99.80;;;;;;5062890;28;19912;-87
2021/05/14 06:21:25;;;;;;;;;;;12.80;99.70;;;;;;5090225;28;20030;-87
2021/05/14 06:24:17;;;;;;;;;;;12.80;99.80;;;;;;5028593;28;19916;-88
2021/05/14 06:26:58;;;;;;;;;;;12.80;99.70;;;;;;5075858;28;19912;-87
2021/05/14 06:29:37;;;;;;;;;;;12.90;99.50;;;;;;5092591;28;20395;-87
2021/05/14 06:32:21;;;;;;;;;;;12.80;99.60;;;;;;5092660;28;19953;-87
2021/05/14 06:34:47;;;;;;;;;;;12.90;99.70;;;;;;5089781;28;19908;-87
2021/05/14 06:37:12;;;;;;;;;;;13.00;99.80;;;;;;5092852;28;19912;-87
2021/05/14 06:39:38;;;;;;;;;;;13.00;99.40;;;;;;5091990;28;20285;-87
2021/05/14 06:42:03;;;;;;;;;;;13.00;99.30;;;;;;5092856;28;19960;-87
2021/05/14 06:44:29;;;;;;;;;;;13.00;98.90;;;;;;5093940;28;19936;-87
2021/05/14 06:47:00;;;;;;;;;;;13.00;98.60;;;;;;5092766;28;19963;-88
2021/05/14 06:49:25;;;;;;;;;;;13.00;98.90;;;;;;5092495;28;20261;-88
2021/05/14 06:51:51;;;;;;;;;;;13.10;99.30;;;;;;5093854;28;19954;-87
2021/05/14 06:54:17;;;;;;;;;;;13.10;99.20;;;;;;5092340;28;19914;-87
2021/05/14 06:56:42;;;;;;;;;;;13.10;99.20;;;;;;5093501;28;19975;-87
2021/05/14 06:59:08;;;;;;;;;;;13.10;99.60;;;;;;5093168;28;19912;-87
2021/05/14 07:01:33;;;;;;;;;;;13.10;99.80;;;;;;5094174;28;19940;-87
2021/05/14 07:03:59;;;;;;;;;;;13.20;98.90;;;;;;5093029;28;19912;-87
2021/05/14 07:06:24;;;;;;;;;;;13.10;98.20;;;;;;5092795;28;19916;-87
2021/05/14 07:08:50;;;;;;;;;;;13.20;98.20;;;;;;5092563;28;19908;-87
2021/05/14 07:11:43;;;;;;;;;;;13.20;98.10;;;;;;5093250;28;20373;-87
2021/05/14 07:14:51;;;;;;;;;;;13.30;98.30;;;;;;5011076;28;19910;-87
2021/05/14 07:18:05;;;;;;;;;;;13.30;98.50;;;;;;5010942;28;20256;-87
2021/05/14 07:21:17;;;;;;;;;;;13.30;98.40;;;;;;4995302;28;20295;-87
2021/05/14 07:24:03;;;;;;;;;;;13.30;97.90;;;;;;4985036;28;19997;-87
2021/05/14 07:27:05;;;;;;;;;;;13.20;98.10;;;;;;5001982;28;19909;-87
2021/05/14 07:36:14;;;;;;;;;;;13.10;97.80;;;;;;5094283;28;20330;-87
2021/05/14 07:38:40;;;;;;;;;;;13.20;97.80;;;;;;5076713;28;19924;-87
2021/05/14 07:41:07;;;;;;;;;;;13.20;97.50;;;;;;5092606;28;20397;-88
2021/05/14 07:43:33;;;;;;;;;;;13.30;97.60;;;;;;5092143;28;19919;-87
2021/05/14 07:45:58;;;;;;;;;;;13.20;97.30;;;;;;5091891;28;19909;-87
2021/05/14 07:48:24;;;;;;;;;;;13.20;97.10;;;;;;5091289;28;19908;-88
2021/05/14 07:50:50;;;;;;;;;;;13.30;97.60;;;;;;5091121;28;19909;-87
2021/05/14 07:53:15;;;;;;;;;;;13.30;97.50;;;;;;5092677;28;19908;-87
2021/05/14 07:55:41;;;;;;;;;;;13.20;96.90;;;;;;5091368;28;20304;-87
2021/05/14 07:58:07;;;;;;;;;;;13.30;96.90;;;;;;5092533;28;19908;-87
2021/05/14 08:00:32;;;;;;;;;;;13.30;97.10;;;;;;5090887;28;20384;-87
2021/05/14 08:02:58;;;;;;;;;;;13.30;96.90;;;;;;5091115;28;20389;-87
2021/05/14 08:05:23;;;;;;;;;;;13.30;96.80;;;;;;5091298;28;19916;-87
2021/05/14 08:08:02;;;;;;;;;;;13.40;97.20;;;;;;5091530;28;19992;-87
2021/05/14 08:10:27;;;;;;;;;;;13.40;97.00;;;;;;5090777;28;20015;-87
2021/05/14 08:12:53;;;;;;;;;;;13.50;96.30;;;;;;5091221;28;20327;-87
2021/05/14 08:15:19;;;;;;;;;;;13.40;96.00;;;;;;5091305;28;19908;-87
2021/05/14 08:17:48;;;;;;;;;;;13.50;96.00;;;;;;5091072;28;19912;-87
2021/05/14 08:20:13;;;;;;;;;;;13.50;96.30;;;;;;5092237;28;20459;-87
2021/05/14 08:22:40;;;;;;;;;;;13.50;96.40;;;;;;5092312;28;19955;-87
2021/05/14 08:25:06;;;;;;;;;;;13.50;95.70;;;;;;5091377;28;19908;-87
2021/05/14 08:27:32;;;;;;;;;;;13.50;95.90;;;;;;5091029;28;19908;-87
2021/05/14 08:29:57;;;;;;;;;;;13.60;95.50;;;;;;5092056;28;20357;-87
2021/05/14 08:32:23;;;;;;;;;;;13.60;95.00;;;;;;5093997;28;19974;-87
2021/05/14 08:34:48;;;;;;;;;;;13.70;95.00;;;;;;5096558;28;19908;-88
2021/05/14 08:37:14;;;;;;;;;;;13.80;95.10;;;;;;5095003;28;20356;-87
2021/05/14 08:39:39;;;;;;;;;;;13.80;94.40;;;;;;5094530;28;19916;-87
2021/05/14 08:42:05;;;;;;;;;;;13.80;93.70;;;;;;5094912;28;19908;-87
2021/05/14 08:44:30;;;;;;;;;;;13.80;93.90;;;;;;5094930;28;19916;-87
2021/05/14 08:46:56;;;;;;;;;;;13.80;93.80;;;;;;5094986;28;19957;-87
2021/05/14 08:49:22;;;;;;;;;;;13.90;94.10;;;;;;5094264;28;20323;-88
2021/05/14 08:51:49;;;;;;;;;;;13.90;94.60;;;;;;5096019;28;20402;-88
2021/05/14 08:54:15;;;;;;;;;;;13.90;93.10;;;;;;5094847;28;19908;-87
2021/05/14 08:56:40;;;;;;;;;;;14.00;92.40;;;;;;5094735;28;19965;-87
2021/05/14 08:59:06;;;;;;;;;;;14.00;91.70;;;;;;5095660;28;19943;-88
2021/05/14 09:01:32;;;;;;;;;;;14.10;91.10;;;;;;5094727;28;19908;-88
2021/05/14 09:04:00;;;;;;;;;;;14.10;91.70;;;;;;5094548;28;19908;-88
2021/05/14 09:06:29;;;;;;;;;;;14.20;91.70;;;;;;5094396;28;19912;-88
2021/05/14 09:08:56;;;;;;;;;;;14.20;91.40;;;;;;5093661;28;20006;-88
2021/05/14 09:11:53;;;;;;;;;;;14.20;90.20;;;;;;5094292;28;19908;-88
2021/05/14 09:14:45;;;;;;;;;;;14.20;87.00;;;;;;5076069;28;19935;-87
2021/05/14 09:17:10;;;;;;;;;;;14.20;88.50;;;;;;5077296;28;19966;-88
2021/05/14 09:19:37;;;;;;;;;;;14.30;90.50;;;;;;5093836;28;19912;-88
2021/05/14 09:22:07;;;;;;;;;;;14.30;90.40;;;;;;5094079;28;19914;-88
2021/05/14 09:24:32;;;;;;;;;;;14.30;89.70;;;;;;5094246;28;19912;-88
2021/05/14 09:26:58;;;;;;;;;;;14.40;86.80;;;;;;5094226;28;20272;-88
2021/05/14 09:29:37;;;;;;;;;;;14.40;83.70;;;;;;5093465;28;19912;-87
2021/05/14 09:32:22;;;;;;;;;;;14.40;82.70;;;;;;5093692;28;19908;-87
2021/05/14 09:34:51;;;;;;;;;;;14.40;79.30;;;;;;5093791;28;19908;-88
2021/05/14 09:37:18;;;;;;;;;;;14.40;79.30;;;;;;5094102;28;20003;-88
2021/05/14 09:39:43;;;;;;;;;;;14.40;76.20;;;;;;5093291;28;19989;-88
2021/05/14 09:42:09;;;;;;;;;;;14.50;75.70;;;;;;5093551;28;19915;-88
2021/05/14 09:44:35;;;;;;;;;;;14.50;74.10;;;;;;5093881;28;19912;-87
2021/05/14 09:47:00;;;;;;;;;;;14.60;75.30;;;;;;5094003;28;19958;-87
2021/05/14 09:49:29;;;;;;;;;;;14.60;76.40;;;;;;5093570;28;19908;-88
2021/05/14 09:51:56;;;;;;;;;;;14.60;76.30;;;;;;5093792;28;19945;-88
2021/05/14 09:54:29;;;;;;;;;;;14.70;77.90;;;;;;5093841;28;20045;-88
2021/05/14 09:59:53;;;;;;;;;;;14.80;77.70;;;;;;5094825;28;20304;-88
2021/05/14 10:02:25;;;;;;;;;;;14.80;77.30;;;;;;5093559;28;19912;-88
2021/05/14 10:04:51;;;;;;;;;;;14.80;76.90;;;;;;5093334;28;19908;-88
2021/05/14 10:07:17;;;;;;;;;;;14.80;76.60;;;;;;5093333;28;19908;-88
2021/05/14 10:09:45;;;;;;;;;;;14.90;76.30;;;;;;5092646;28;19999;-88
2021/05/14 10:12:11;;;;;;;;;;;14.90;77.30;;;;;;5094390;28;19933;-87
2021/05/14 10:14:36;;;;;;;;;;;14.90;76.90;;;;;;5093177;28;19909;-88
2021/05/14 10:17:02;;;;;;;;;;;14.90;76.60;;;;;;5093569;28;19912;-88
2021/05/14 10:19:28;;;;;;;;;;;14.90;76.20;;;;;;5092431;28;19916;-88
2021/05/14 10:21:55;;;;;;;;;;;15.00;74.40;;;;;;5094001;28;19912;-87
2021/05/14 10:24:36;;;;;;;;;;;15.10;74.60;;;;;;5092917;28;19909;-88
2021/05/14 10:27:14;;;;;;;;;;;15.10;74.50;;;;;;5076085;28;19908;-88
2021/05/14 10:29:41;;;;;;;;;;;15.20;75.00;;;;;;5093373;28;20285;-88
2021/05/14 10:32:07;;;;;;;;;;;15.20;75.70;;;;;;5094145;28;20346;-88
2021/05/14 10:34:33;;;;;;;;;;;15.30;75.40;;;;;;5092673;28;20185;-88
2021/05/14 10:36:58;;;;;;;;;;;15.40;76.80;;;;;;5094310;28;20011;-87
2021/05/14 10:39:38;;;;;;;;;;;15.40;75.50;;;;;;5095388;28;19920;-87
2021/05/14 10:42:13;;;;;;;;;;;15.40;75.30;;;;;;5096885;28;19918;-87
2021/05/14 10:44:40;;;;;;;;;;;15.40;74.90;;;;;;5097721;28;20280;-88
2021/05/14 10:47:21;;;;;;;;;;;15.50;76.20;;;;;;5094429;28;19908;-88
2021/05/14 10:49:47;;;;;;;;;;;15.50;70.80;;;;;;5093580;28;20365;-87
2021/05/14 10:52:13;;;;;;;;;;;15.60;70.40;;;;;;5093103;28;19912;-88
2021/05/14 10:54:38;;;;;;;;;;;15.60;71.80;;;;;;5093679;28;19908;-88
2021/05/14 10:57:04;;;;;;;;;;;15.70;69.90;;;;;;5093131;28;20335;-87
2021/05/14 10:59:31;;;;;;;;;;;15.60;69.40;;;;;;5092516;28;19908;-87
2021/05/14 11:01:57;;;;;;;;;;;15.70;71.60;;;;;;5094836;28;19931;-87
2021/05/14 11:04:35;;;;;;;;;;;15.70;68.60;;;;;;5093554;28;19912;-87
2021/05/14 11:07:00;;;;;;;;;;;15.60;68.40;;;;;;5094530;28;20295;-87
2021/05/14 11:09:26;;;;;;;;;;;15.60;69.80;;;;;;5092719;28;19908;-87
2021/05/14 11:12:08;;;;;;;;;;;15.60;67.60;;;;;;5095609;28;19915;-87
2021/05/14 11:14:40;;;;;;;;;;;15.70;64.50;;;;;;5095642;28;19912;-88
2021/05/14 11:17:10;;;;;;;;;;;15.60;64.10;;;;;;5092763;28;20334;-87
2021/05/14 11:19:56;;;;;;;;;;;15.50;63.20;;;;;;5091720;28;19908;-88
2021/05/14 11:22:22;;;;;;;;;;;15.50;65.80;;;;;;5074493;28;19908;-88
2021/05/14 11:24:48;;;;;;;;;;;15.50;66.10;;;;;;5092312;28;19908;-87
2021/05/14 11:27:15;;;;;;;;;;;15.60;64.60;;;;;;5092626;28;20012;-87
2021/05/14 11:29:46;;;;;;;;;;;15.60;64.00;;;;;;5092892;28;20374;-87
2021/05/14 11:32:12;;;;;;;;;;;15.60;65.60;;;;;;5092660;28;19959;-87
2021/05/14 11:34:56;;;;;;;;;;;15.70;67.20;;;;;;5093983;28;19953;-87
2021/05/14 11:37:22;;;;;;;;;;;15.80;67.20;;;;;;5074933;28;20306;-87
2021/05/14 11:39:48;;;;;;;;;;;15.80;65.10;;;;;;5091577;28;20261;-87
2021/05/14 11:42:24;;;;;;;;;;;15.80;66.20;;;;;;5092707;28;19912;-87
2021/05/14 11:45:00;;;;;;;;;;;15.80;66.30;;;;;;5092211;28;19908;-86
2021/05/14 11:47:26;;;;;;;;;;;15.90;66.40;;;;;;5091483;28;19908;-87
2021/05/14 11:49:52;;;;;;;;;;;15.80;67.20;;;;;;5091926;28;20389;-88
2021/05/14 11:52:30;;;;;;;;;;;15.70;66.50;;;;;;5091811;28;19908;-87
2021/05/14 11:55:10;;;;;;;;;;;15.80;66.60;;;;;;5093723;28;19912;-88
2021/05/14 11:57:36;;;;;;;;;;;15.90;64.10;;;;;;5093527;28;19916;-88
2021/05/14 12:00:02;;;;;;;;;;;15.80;65.90;;;;;;5092968;28;19915;-88
2021/05/14 12:02:32;;;;;;;;;;;15.80;66.90;;;;;;5092177;28;19914;-88
2021/05/14 12:04:57;;;;;;;;;;;15.80;66.00;;;;;;5091411;28;20020;-88
2021/05/14 12:07:23;;;;;;;;;;;15.90;66.20;;;;;;5095886;28;20011;-88
2021/05/14 12:09:55;;;;;;;;;;;15.90;66.80;;;;;;5095152;28;19943;-88
2021/05/14 12:12:21;;;;;;;;;;;15.90;67.10;;;;;;5096928;28;19971;-87
2021/05/14 12:14:46;;;;;;;;;;;16.00;66.60;;;;;;5095612;28;19967;-87
2021/05/14 12:17:12;;;;;;;;;;;16.00;66.90;;;;;;5095338;28;19919;-88
2021/05/14 12:19:47;;;;;;;;;;;16.10;66.70;;;;;;5094887;28;19914;-88
2021/05/14 12:22:13;;;;;;;;;;;16.10;67.20;;;;;;5095298;28;19915;-88
2021/05/14 12:24:39;;;;;;;;;;;16.10;67.10;;;;;;5095249;28;19908;-87
2021/05/14 12:27:06;;;;;;;;;;;16.10;66.50;;;;;;5095250;28;20403;-87
2021/05/14 12:29:32;;;;;;;;;;;16.10;66.40;;;;;;5095580;28;19915;-87
2021/05/14 12:31:58;;;;;;;;;;;16.10;67.10;;;;;;5094908;28;19912;-87
2021/05/14 12:34:23;;;;;;;;;;;16.10;67.10;;;;;;5078162;28;19912;-87
2021/05/14 12:36:53;;;;;;;;;;;16.10;67.30;;;;;;5096240;28;20383;-87
2021/05/14 12:39:19;;;;;;;;;;;16.10;66.60;;;;;;5094400;28;20008;-87
2021/05/14 12:42:17;;;;;;;;;;;16.10;66.00;;;;;;5094976;28;19908;-88
2021/05/14 12:45:00;;;;;;;;;;;16.00;66.30;;;;;;4961889;28;19949;-88
2021/05/14 12:48:04;;;;;;;;;;;16.00;66.90;;;;;;4994678;28;19956;-88
2021/05/14 12:50:30;;;;;;;;;;;16.00;67.60;;;;;;5068082;28;19919;-87
2021/05/14 12:53:33;;;;;;;;;;;16.00;67.20;;;;;;5073296;28;19908;-88
2021/05/14 12:56:26;;;;;;;;;;;16.10;66.60;;;;;;5073362;28;19908;-87
2021/05/14 12:58:57;;;;;;;;;;;16.10;66.50;;;;;;5057266;28;19915;-87
2021/05/14 13:01:23;;;;;;;;;;;16.20;65.80;;;;;;5095125;28;19919;-87
2021/05/14 13:03:49;;;;;;;;;;;16.30;65.50;;;;;;5096414;28;19953;-87
2021/05/14 13:06:14;;;;;;;;;;;16.30;64.80;;;;;;5094356;28;19912;-87
2021/05/14 13:08:40;;;;;;;;;;;16.40;63.90;;;;;;5095687;28;19909;-87
2021/05/14 13:11:12;;;;;;;;;;;16.40;65.20;;;;;;5093693;28;19908;-87
2021/05/14 13:13:39;;;;;;;;;;;16.40;64.50;;;;;;5094345;28;19908;-87
2021/05/14 13:16:04;;;;;;;;;;;16.40;64.80;;;;;;5094307;28;19915;-87
2021/05/14 13:18:32;;;;;;;;;;;16.40;65.90;;;;;;5094213;28;19908;-87
2021/05/14 13:20:59;;;;;;;;;;;16.40;65.40;;;;;;5093642;28;20372;-87
2021/05/14 13:23:25;;;;;;;;;;;16.40;66.30;;;;;;5094124;28;19912;-87
2021/05/14 13:25:51;;;;;;;;;;;16.40;65.50;;;;;;5094140;28;19915;-89
2021/05/14 13:28:17;;;;;;;;;;;16.30;66.10;;;;;;5094181;28;20287;-87
2021/05/14 13:30:42;;;;;;;;;;;16.30;66.50;;;;;;5094703;28;20330;-88
2021/05/14 13:33:08;;;;;;;;;;;16.30;65.50;;;;;;5093915;28;19908;-87
2021/05/14 13:35:34;;;;;;;;;;;16.30;66.50;;;;;;5094263;28;19916;-87
2021/05/14 13:38:00;;;;;;;;;;;16.30;65.70;;;;;;5094216;28;19912;-87
2021/05/14 13:40:25;;;;;;;;;;;16.30;66.30;;;;;;5093707;28;19916;-87
2021/05/14 13:42:51;;;;;;;;;;;16.30;65.00;;;;;;5095179;28;20324;-87
2021/05/14 13:45:16;;;;;;;;;;;16.20;65.40;;;;;;5093741;28;19915;-87
2021/05/14 13:47:42;;;;;;;;;;;16.20;65.80;;;;;;5094738;28;19958;-87
2021/05/14 13:50:08;;;;;;;;;;;16.20;66.30;;;;;;5093295;28;19912;-87
2021/05/14 13:52:33;;;;;;;;;;;16.30;67.00;;;;;;5093542;28;20002;-87
2021/05/14 13:54:58;;;;;;;;;;;16.30;66.30;;;;;;5093402;28;19969;-87
2021/05/14 13:57:24;;;;;;;;;;;16.30;66.20;;;;;;5093425;28;19916;-87
2021/05/14 13:59:49;;;;;;;;;;;16.40;66.30;;;;;;5094586;28;19919;-85
2021/05/14 14:02:15;;;;;;;;;;;16.40;67.40;;;;;;5093767;28;19908;-87
2021/05/14 14:04:45;;;;;;;;;;;16.40;65.90;;;;;;5093725;28;19958;-87
2021/05/14 14:07:11;;;;;;;;;;;16.40;65.30;;;;;;5093435;28;20038;-87
2021/05/14 14:09:51;;;;;;;;;;;16.30;66.20;;;;;;5094245;28;19943;-87
2021/05/14 14:12:19;;;;;;;;;;;16.30;66.50;;;;;;5093675;28;20016;-88
2021/05/14 14:14:45;;;;;;;;;;;16.30;68.00;;;;;;5093385;28;19930;-88
2021/05/14 14:17:10;;;;;;;;;;;16.40;67.90;;;;;;5094566;28;20412;-87
2021/05/14 14:19:36;;;;;;;;;;;16.30;68.30;;;;;;5094009;28;20001;-87
2021/05/14 14:22:01;;;;;;;;;;;16.30;67.90;;;;;;5093216;28;19918;-87
2021/05/14 14:24:27;;;;;;;;;;;16.30;67.90;;;;;;5093370;28;20288;-88
2021/05/14 14:26:52;;;;;;;;;;;16.20;68.30;;;;;;5094749;28;19908;-87
2021/05/14 14:29:18;;;;;;;;;;;16.20;68.60;;;;;;5094954;28;19915;-87
2021/05/14 14:31:43;;;;;;;;;;;16.20;69.40;;;;;;5094211;28;19912;-87
2021/05/14 14:34:11;;;;;;;;;;;16.20;69.70;;;;;;5094776;28;19953;-87
2021/05/14 14:36:37;;;;;;;;;;;16.20;68.60;;;;;;5098659;28;20354;-87
2021/05/14 14:39:02;;;;;;;;;;;16.20;70.00;;;;;;5099950;28;19947;-87
2021/05/14 14:41:28;;;;;;;;;;;16.10;70.40;;;;;;5099698;28;19995;-88